Time;durP1;ratioP1;P1;durP2;ratioP2;P2;SDS_P1;SDS_P2;PMS_P1;PMS_P2;Temp;Humidity;BMP_temperature;BMP_pressure;BME280_temperature;BME280_humidity;BME280_pressure;Samples;Min_cycle;Max_cycle;Signal;HPM_P1;HPM_P2
2023/05/04 00:00:06;;;;;;;4.55;2.50;;;;;;;12.89;56.42;100514.59;4905151;28;20060;-87
2023/05/04 00:02:34;;;;;;;4.13;2.42;;;;;;;12.92;55.88;100511.66;4918705;28;20054;-86
2023/05/04 00:05:04;;;;;;;3.65;2.67;;;;;;;12.88;56.16;100503.09;4927639;28;20316;-87
2023/05/04 00:07:32;;;;;;;3.10;2.78;;;;;;;12.79;56.91;100502.06;4903096;28;20061;-87
2023/05/04 00:09:59;;;;;;;3.78;2.47;;;;;;;12.72;57.69;100503.59;4927659;28;20501;-87
2023/05/04 00:12:27;;;;;;;7.50;2.95;;;;;;;12.72;57.71;100500.94;4904111;28;20044;-87
2023/05/04 00:14:54;;;;;;;4.63;2.80;;;;;;;12.73;57.67;100496.44;4921689;28;20051;-87
2023/05/04 00:17:21;;;;;;;6.00;2.95;;;;;;;12.69;58.78;100503.00;4935861;28;20056;-87
2023/05/04 00:19:51;;;;;;;5.75;3.53;;;;;;;12.76;58.96;100502.31;4899544;28;20084;-88
2023/05/04 00:22:17;;;;;;;5.30;2.58;;;;;;;12.67;59.35;100502.28;4920077;28;20048;-87
2023/05/04 00:24:45;;;;;;;5.45;2.95;;;;;;;12.98;56.51;100501.31;4922456;28;20401;-87
2023/05/04 00:27:12;;;;;;;5.35;2.50;;;;;;;12.88;56.80;100491.59;4920865;28;20048;-87
2023/05/04 00:29:42;;;;;;;3.85;2.83;;;;;;;12.82;58.02;100495.59;4935930;28;20055;-87
2023/05/04 00:32:09;;;;;;;3.25;2.67;;;;;;;12.88;55.76;100496.91;4913857;28;20107;-87
2023/05/04 00:34:36;;;;;;;6.47;2.60;;;;;;;12.95;54.78;100488.25;4905670;28;20058;-87
2023/05/04 00:37:04;;;;;;;5.63;2.83;;;;;;;12.92;54.78;100488.50;4918882;28;20225;-87
2023/05/04 00:39:30;;;;;;;7.20;2.78;;;;;;;13.08;53.97;100487.13;4903001;28;20054;-87
2023/05/04 00:41:57;;;;;;;5.15;2.58;;;;;;;13.13;53.59;100480.44;4920257;28;20134;-88
2023/05/04 00:44:24;;;;;;;8.45;2.65;;;;;;;12.99;54.08;100483.47;4887212;28;20421;-88
2023/05/04 00:46:51;;;;;;;9.02;2.20;;;;;;;12.96;54.35;100479.25;4934893;28;20136;-88
2023/05/04 00:49:20;;;;;;;4.45;2.55;;;;;;;13.08;53.47;100479.13;4918834;28;20075;-87
2023/05/04 00:51:48;;;;;;;6.55;2.60;;;;;;;13.11;53.33;100473.56;4916555;28;20123;-87
2023/05/04 00:54:17;;;;;;;3.40;2.60;;;;;;;13.11;52.41;100458.41;4901865;28;20584;-86
2023/05/04 00:56:46;;;;;;;3.67;2.30;;;;;;;13.15;52.85;100457.16;4905544;28;20055;-87
2023/05/04 00:59:13;;;;;;;4.65;2.55;;;;;;;13.15;51.81;100459.81;4902491;28;20055;-86
2023/05/04 01:01:40;;;;;;;9.40;2.70;;;;;;;13.30;51.36;100457.63;4936403;28;20050;-87
2023/05/04 01:04:08;;;;;;;5.00;2.92;;;;;;;13.19;52.38;100463.06;4936511;28;20689;-87
2023/05/04 01:06:59;;;;;;;5.40;2.75;;;;;;;13.01;52.80;100454.88;4918900;28;20444;-87
2023/05/04 01:09:42;;;;;;;12.75;3.88;;;;;;;13.17;51.67;100455.16;4888939;28;20058;-86
2023/05/04 01:12:41;;;;;;;6.75;2.50;;;;;;;12.98;54.07;100460.47;4919039;28;20127;-87
2023/05/04 01:15:09;;;;;;;4.15;2.45;;;;;;;12.99;53.84;100452.31;4904676;28;20156;-87
2023/05/04 01:17:35;;;;;;;3.70;2.60;;;;;;;12.72;55.80;100458.28;4933200;28;20089;-87
2023/05/04 01:20:03;;;;;;;4.07;2.70;;;;;;;12.98;53.66;100455.97;4936473;28;20051;-87
2023/05/04 01:22:30;;;;;;;4.95;2.53;;;;;;;13.00;52.93;100455.81;4906419;28;20044;-87
2023/05/04 01:24:57;;;;;;;5.60;3.33;;;;;;;13.03;52.16;100458.25;4934486;28;20048;-87
2023/05/04 01:27:45;;;;;;;4.85;2.90;;;;;;;12.73;52.46;100465.28;4919753;28;20118;-87
2023/05/04 01:30:22;;;;;;;6.45;3.25;;;;;;;12.72;55.29;100465.41;4922618;28;20039;-87
2023/05/04 01:32:49;;;;;;;5.82;3.00;;;;;;;12.62;56.05;100461.88;4922211;28;20059;-87
2023/05/04 01:35:19;;;;;;;5.68;2.78;;;;;;;12.65;56.17;100470.44;4913408;28;20056;-87
2023/05/04 01:37:47;;;;;;;7.82;2.85;;;;;;;12.63;55.74;100466.22;4899298;28;20497;-87
2023/05/04 01:40:18;;;;;;;4.55;2.50;;;;;;;12.67;55.20;100472.97;4909946;28;20035;-87
2023/05/04 01:42:54;;;;;;;8.00;3.35;;;;;;;12.77;53.95;100463.19;4922561;28;20047;-87
2023/05/04 01:45:24;;;;;;;3.58;2.47;;;;;;;12.76;53.63;100465.03;4896097;28;20405;-87
2023/05/04 01:47:54;;;;;;;6.70;2.90;;;;;;;12.73;54.05;100469.78;4905358;28;20095;-87
2023/05/04 01:50:23;;;;;;;5.93;2.72;;;;;;;12.54;54.99;100466.06;4920123;28;20432;-87
2023/05/04 01:52:51;;;;;;;6.72;3.30;;;;;;;12.55;55.38;100466.91;4906688;28;20102;-87
2023/05/04 01:55:20;;;;;;;5.25;3.17;;;;;;;12.75;53.25;100459.84;4930487;28;20062;-87
2023/05/04 01:57:47;;;;;;;7.15;3.42;;;;;;;12.71;54.16;100459.25;4927805;28;20481;-87
2023/05/04 02:00:15;;;;;;;6.32;3.30;;;;;;;12.84;52.99;100472.34;4888217;28;20122;-87
2023/05/04 02:02:42;;;;;;;4.82;3.20;;;;;;;12.85;51.96;100468.72;4936716;28;20370;-88
2023/05/04 02:05:13;;;;;;;6.15;3.35;;;;;;;12.96;52.14;100468.59;4918110;28;20571;-87
2023/05/04 02:07:39;;;;;;;6.50;3.72;;;;;;;12.97;52.11;100470.28;4904557;28;20043;-87
2023/05/04 02:10:07;;;;;;;6.45;3.90;;;;;;;13.01;52.06;100471.69;4934164;28;20058;-87
2023/05/04 02:12:37;;;;;;;6.18;3.42;;;;;;;13.00;51.85;100474.50;4916533;28;20047;-87
2023/05/04 02:15:04;;;;;;;6.30;4.07;;;;;;;13.02;51.45;100465.38;4920472;28;20091;-86
2023/05/04 02:17:31;;;;;;;5.95;3.75;;;;;;;13.03;51.38;100466.25;4918725;28;20047;-87
2023/05/04 02:19:58;;;;;;;5.88;3.28;;;;;;;12.94;51.68;100459.88;4902965;28;20117;-87
2023/05/04 02:22:25;;;;;;;7.57;3.25;;;;;;;12.82;52.41;100469.81;4899827;28;20060;-87
2023/05/04 02:24:52;;;;;;;5.68;3.42;;;;;;;12.67;54.44;100463.19;4918420;28;20060;-87
2023/05/04 02:27:19;;;;;;;6.30;3.45;;;;;;;12.54;55.57;100468.72;4933490;28;20047;-87
2023/05/04 02:29:46;;;;;;;7.95;3.50;;;;;;;12.43;56.23;100460.81;4920177;28;20049;-87
2023/05/04 02:32:13;;;;;;;6.07;3.20;;;;;;;12.31;56.23;100454.72;4926112;28;20381;-86
2023/05/04 02:34:43;;;;;;;7.05;3.50;;;;;;;12.24;56.87;100463.38;4916119;28;20543;-87
2023/05/04 02:37:12;;;;;;;5.35;3.55;;;;;;;12.22;56.36;100457.34;4852459;28;20054;-87
2023/05/04 02:39:39;;;;;;;6.38;3.22;;;;;;;12.20;56.89;100467.25;4917432;28;20134;-87
2023/05/04 02:42:06;;;;;;;6.38;3.03;;;;;;;12.24;56.66;100460.72;4918725;28;20098;-87
2023/05/04 02:44:36;;;;;;;7.13;3.20;;;;;;;12.04;57.61;100457.91;4920360;28;20051;-87
2023/05/04 02:47:09;;;;;;;5.63;3.22;;;;;;;12.05;57.28;100456.94;4908605;28;20051;-87
2023/05/04 02:49:36;;;;;;;4.78;3.13;;;;;;;12.10;57.31;100460.03;4903086;28;20055;-87
2023/05/04 02:52:05;;;;;;;9.35;3.58;;;;;;;11.95;57.88;100458.69;4918239;28;20070;-86
2023/05/04 02:54:34;;;;;;;6.57;3.17;;;;;;;12.19;56.63;100457.56;4902259;28;20079;-86
2023/05/04 02:57:05;;;;;;;7.18;3.42;;;;;;;12.24;56.47;100463.38;4899614;28;20474;-86
2023/05/04 02:59:32;;;;;;;6.28;3.42;;;;;;;12.18;57.43;100455.91;4917404;28;20131;-86
2023/05/04 03:02:00;;;;;;;7.25;3.17;;;;;;;12.16;57.46;100464.00;4910167;28;20058;-86
2023/05/04 03:04:27;;;;;;;4.82;3.80;;;;;;;12.10;57.80;100470.69;4902024;28;20123;-86
2023/05/04 03:06:54;;;;;;;5.53;3.28;;;;;;;12.00;58.12;100460.97;4895823;28;20054;-86
2023/05/04 03:09:25;;;;;;;6.88;3.60;;;;;;;12.01;57.93;100465.31;4887727;28;21568;-86
2023/05/04 03:11:52;;;;;;;9.27;3.88;;;;;;;11.97;58.08;100459.41;4876525;29;20048;-86
2023/05/04 03:14:19;;;;;;;5.78;3.53;;;;;;;11.88;58.46;100462.81;4890624;28;20056;-86
2023/05/04 03:16:46;;;;;;;5.65;3.90;;;;;;;11.85;58.97;100457.75;4916288;28;20059;-87
2023/05/04 03:19:23;;;;;;;9.02;3.90;;;;;;;11.91;58.99;100459.94;4915515;28;20054;-87
2023/05/04 03:21:52;;;;;;;7.85;4.03;;;;;;;11.84;58.65;100461.38;4901184;28;20043;-87
2023/05/04 03:24:28;;;;;;;4.93;3.55;;;;;;;11.76;59.16;100462.03;4882457;28;20146;-86
2023/05/04 03:26:57;;;;;;;5.10;3.47;;;;;;;11.70;60.03;100457.19;4906274;28;20054;-85
2023/05/04 03:29:25;;;;;;;8.80;4.22;;;;;;;11.82;60.50;100461.50;4932275;28;20043;-85
2023/05/04 03:31:53;;;;;;;5.22;3.35;;;;;;;11.68;61.00;100445.88;4905274;28;20071;-86
2023/05/04 03:34:21;;;;;;;8.88;4.40;;;;;;;11.79;59.75;100453.78;4892908;28;20047;-87
2023/05/04 03:36:57;;;;;;;9.07;3.45;;;;;;;11.73;59.78;100457.81;4918171;28;20054;-86
2023/05/04 03:39:24;;;;;;;4.40;3.75;;;;;;;11.70;59.93;100454.53;4918488;28;20063;-86
2023/05/04 03:41:51;;;;;;;8.07;4.20;;;;;;;11.71;59.74;100451.75;4903670;28;20147;-86
2023/05/04 03:44:18;;;;;;;5.95;3.70;;;;;;;11.67;60.51;100450.31;4921238;28;20247;-86
2023/05/04 03:46:46;;;;;;;6.80;4.18;;;;;;;11.57;60.76;100438.75;4935405;28;20062;-86
2023/05/04 03:49:13;;;;;;;9.43;4.13;;;;;;;11.60;60.21;100438.53;4919267;28;20131;-87
2023/05/04 03:51:41;;;;;;;5.45;3.55;;;;;;;11.57;60.83;100438.75;4917741;28;20071;-87
2023/05/04 03:54:08;;;;;;;4.38;3.65;;;;;;;11.52;60.74;100444.47;4892842;28;20122;-87
2023/05/04 03:56:34;;;;;;;5.63;3.60;;;;;;;11.65;59.50;100444.31;4904949;28;20174;-87
2023/05/04 03:59:01;;;;;;;8.57;4.22;;;;;;;11.59;59.99;100436.81;4915067;28;20048;-87
2023/05/04 04:01:30;;;;;;;8.00;4.40;;;;;;;11.79;58.45;100437.81;4907750;29;20060;-87
2023/05/04 04:03:57;;;;;;;6.72;4.57;;;;;;;11.96;57.19;100423.13;4909345;28;20048;-87
2023/05/04 04:06:24;;;;;;;12.65;4.20;;;;;;;11.95;57.64;100427.59;4923406;28;20082;-87
2023/05/04 04:08:51;;;;;;;6.85;4.30;;;;;;;11.93;58.07;100426.91;4910611;28;20063;-87
2023/05/04 04:11:18;;;;;;;7.18;4.50;;;;;;;12.10;56.22;100422.78;4933943;28;20119;-87
2023/05/04 04:13:45;;;;;;;7.20;4.05;;;;;;;12.13;55.84;100427.84;4887351;29;20910;-88
2023/05/04 04:16:11;;;;;;;11.70;4.93;;;;;;;12.02;55.27;100425.25;4900991;28;20139;-87
2023/05/04 04:18:38;;;;;;;9.82;4.75;;;;;;;12.11;55.54;100423.63;4916943;28;20044;-87
2023/05/04 04:21:05;;;;;;;7.68;4.85;;;;;;;11.93;55.36;100421.56;4922115;28;20123;-86
2023/05/04 04:23:32;;;;;;;7.60;5.32;;;;;;;12.03;55.54;100423.44;4941366;28;20054;-87
2023/05/04 04:26:07;;;;;;;10.68;5.03;;;;;;;11.93;55.25;100431.34;4932562;28;20055;-87
2023/05/04 04:28:36;;;;;;;9.18;4.93;;;;;;;12.04;55.06;100418.00;4934896;28;20051;-86
2023/05/04 04:31:03;;;;;;;8.40;5.10;;;;;;;12.02;54.99;100429.75;4937034;28;20063;-87
2023/05/04 04:33:31;;;;;;;8.52;4.95;;;;;;;12.09;55.00;100423.75;4944633;28;20107;-87
2023/05/04 04:35:57;;;;;;;9.45;4.63;;;;;;;12.11;55.06;100419.16;4938831;28;20054;-87
2023/05/04 04:38:24;;;;;;;11.25;5.32;;;;;;;12.09;55.01;100421.09;4905342;28;20060;-87
2023/05/04 04:40:54;;;;;;;7.15;4.47;;;;;;;12.13;54.96;100419.84;4894284;28;20063;-85
2023/05/04 04:43:22;;;;;;;6.82;4.80;;;;;;;12.08;55.33;100429.22;4915199;28;20139;-86
2023/05/04 04:45:48;;;;;;;9.85;5.07;;;;;;;12.10;55.21;100419.28;4921642;28;20056;-86
2023/05/04 04:48:15;;;;;;;8.95;5.03;;;;;;;12.12;55.39;100420.84;4923641;28;20052;-86
2023/05/04 04:50:42;;;;;;;9.98;5.32;;;;;;;12.01;55.50;100426.25;4937515;28;20517;-86
2023/05/04 04:53:09;;;;;;;10.68;5.63;;;;;;;12.12;55.29;100422.66;4922896;28;20051;-85
2023/05/04 04:55:36;;;;;;;10.98;5.50;;;;;;;12.15;55.16;100425.06;4938542;28;20145;-86
2023/05/04 04:58:03;;;;;;;7.03;4.97;;;;;;;12.14;54.77;100416.22;4923843;28;20390;-87
2023/05/04 05:00:29;;;;;;;11.95;6.18;;;;;;;12.13;55.36;100425.16;4919327;28;20358;-86
2023/05/04 05:02:56;;;;;;;6.32;4.60;;;;;;;12.06;55.83;100423.16;4937686;28;20052;-85
2023/05/04 05:05:23;;;;;;;12.02;5.05;;;;;;;12.17;55.77;100431.09;4922206;28;20035;-86
2023/05/04 05:07:50;;;;;;;9.60;4.97;;;;;;;12.11;55.61;100423.63;4916804;28;20083;-85
2023/05/04 05:10:17;;;;;;;11.80;5.13;;;;;;;12.12;55.47;100436.81;4922538;28;20079;-85
2023/05/04 05:12:44;;;;;;;6.93;5.05;;;;;;;12.19;55.58;100431.81;4941277;28;20125;-85
2023/05/04 05:15:10;;;;;;;9.57;5.22;;;;;;;12.09;55.76;100431.75;4920315;28;20048;-86
2023/05/04 05:17:38;;;;;;;9.43;5.88;;;;;;;12.24;55.34;100431.44;4938014;28;20074;-86
2023/05/04 05:20:11;;;;;;;9.13;5.05;;;;;;;12.22;55.61;100428.88;4935679;28;20055;-86
2023/05/04 05:22:39;;;;;;;11.07;5.38;;;;;;;12.25;55.28;100435.75;4923321;28;20047;-86
2023/05/04 05:25:06;;;;;;;7.13;5.20;;;;;;;12.28;55.31;100435.50;4927185;28;20055;-86
2023/05/04 05:27:33;;;;;;;12.38;6.55;;;;;;;12.24;55.61;100434.09;4904196;28;20051;-86
2023/05/04 05:30:01;;;;;;;8.05;5.38;;;;;;;12.21;55.39;100437.00;4937127;28;20058;-86
2023/05/04 05:32:30;;;;;;;10.70;5.38;;;;;;;12.29;55.49;100450.50;4921932;28;20517;-86
2023/05/04 05:34:57;;;;;;;11.32;5.57;;;;;;;12.31;55.69;100448.53;4936242;28;20528;-86
2023/05/04 05:37:24;;;;;;;8.10;5.50;;;;;;;12.33;55.60;100451.91;4936210;28;20057;-86
2023/05/04 05:39:51;;;;;;;8.00;5.28;;;;;;;12.27;56.04;100447.97;4921854;28;20044;-86
2023/05/04 05:42:18;;;;;;;10.68;6.00;;;;;;;12.30;56.10;100449.53;4921138;28;20044;-86
2023/05/04 05:44:45;;;;;;;8.77;5.47;;;;;;;12.35;56.12;100452.63;4940074;28;20043;-86
2023/05/04 05:47:12;;;;;;;7.97;5.65;;;;;;;12.43;55.58;100454.63;4917925;28;20046;-86
2023/05/04 05:49:39;;;;;;;7.15;5.70;;;;;;;12.38;55.76;100453.19;4938233;28;20051;-86
2023/05/04 05:52:07;;;;;;;14.15;6.75;;;;;;;12.43;55.77;100455.47;4937042;28;20098;-86
2023/05/04 05:54:34;;;;;;;10.68;6.55;;;;;;;12.50;56.07;100451.31;4923091;28;20051;-87
2023/05/04 05:57:01;;;;;;;9.57;6.00;;;;;;;12.48;56.02;100452.41;4918813;28;20047;-86
2023/05/04 05:59:28;;;;;;;9.95;6.32;;;;;;;12.48;56.19;100463.91;4935800;28;20103;-87
2023/05/04 06:01:55;;;;;;;10.80;6.05;;;;;;;12.45;56.16;100460.69;4935795;28;20125;-86
2023/05/04 06:04:21;;;;;;;9.32;6.00;;;;;;;12.53;55.68;100461.69;4922140;28;20115;-86
2023/05/04 06:06:48;;;;;;;8.05;5.32;;;;;;;12.52;55.54;100461.84;4918377;28;20423;-86
2023/05/04 06:09:15;;;;;;;13.43;6.70;;;;;;;12.55;56.33;100461.56;4903125;28;20070;-86
2023/05/04 06:11:42;;;;;;;12.13;6.63;;;;;;;12.69;56.25;100455.03;4935491;28;20044;-86
2023/05/04 06:14:09;;;;;;;7.75;5.68;;;;;;;12.77;56.11;100457.84;4919694;28;20457;-86
2023/05/04 06:16:36;;;;;;;12.40;6.60;;;;;;;12.74;55.85;100458.13;4934630;28;20047;-86
2023/05/04 06:19:02;;;;;;;8.93;5.57;;;;;;;12.76;56.18;100457.03;4922230;28;20063;-85
2023/05/04 06:21:29;;;;;;;10.30;5.97;;;;;;;12.80;55.89;100444.28;4902354;28;20061;-86
2023/05/04 06:23:56;;;;;;;13.73;6.07;;;;;;;12.82;55.72;100442.31;4921406;28;20046;-86
2023/05/04 06:26:23;;;;;;;12.90;5.93;;;;;;;12.88;55.65;100448.94;4916080;28;20049;-86
2023/05/04 06:28:50;;;;;;;15.65;6.25;;;;;;;12.84;55.54;100440.34;4904903;28;20580;-85
2023/05/04 06:31:17;;;;;;;11.93;6.40;;;;;;;12.88;55.57;100436.44;4933272;28;20103;-86
2023/05/04 06:33:44;;;;;;;11.85;7.28;;;;;;;12.87;56.49;100432.09;4905248;28;20056;-86
2023/05/04 06:36:11;;;;;;;11.45;6.60;;;;;;;12.96;56.22;100438.44;4933473;28;20058;-87
2023/05/04 06:38:37;;;;;;;11.90;6.75;;;;;;;13.04;56.45;100433.25;4936298;28;20348;-86
2023/05/04 06:41:05;;;;;;;9.10;6.30;;;;;;;13.00;56.30;100427.38;4937041;28;20054;-85
2023/05/04 06:43:32;;;;;;;16.95;7.25;;;;;;;13.10;56.34;100437.19;4935853;28;20048;-86
2023/05/04 06:46:02;;;;;;;11.07;6.80;;;;;;;13.12;56.72;100425.41;4921334;28;20509;-86
2023/05/04 06:48:30;;;;;;;14.35;6.88;;;;;;;13.13;57.03;100429.78;4921957;28;20040;-86
2023/05/04 06:50:57;;;;;;;12.48;6.25;;;;;;;13.22;56.80;100423.59;4921046;28;20517;-86
2023/05/04 06:53:27;;;;;;;16.08;8.80;;;;;;;13.21;56.87;100427.25;4920970;28;20063;-87
2023/05/04 06:55:54;;;;;;;11.70;7.00;;;;;;;13.21;56.53;100424.59;4935307;28;20100;-86
2023/05/04 06:58:20;;;;;;;9.95;7.18;;;;;;;13.25;56.78;100427.81;4906070;28;20126;-86
2023/05/04 07:00:47;;;;;;;11.75;6.82;;;;;;;13.25;56.69;100422.47;4893836;28;20050;-87
2023/05/04 07:03:14;;;;;;;13.30;7.68;;;;;;;13.17;57.67;100427.66;4921492;28;20087;-86
2023/05/04 07:05:43;;;;;;;17.88;8.38;;;;;;;13.21;57.35;100421.09;4935369;28;20309;-86
2023/05/04 07:08:11;;;;;;;11.98;7.47;;;;;;;13.30;57.17;100417.59;4918734;28;20047;-86
2023/05/04 07:10:38;;;;;;;11.23;7.53;;;;;;;13.28;58.34;100413.41;4934766;28;20138;-86
2023/05/04 07:13:05;;;;;;;11.43;7.55;;;;;;;13.44;57.95;100421.69;4924643;28;20524;-86
2023/05/04 07:15:32;;;;;;;11.50;7.70;;;;;;;13.53;57.71;100420.84;4934895;28;20055;-87
2023/05/04 07:18:00;;;;;;;12.68;7.80;;;;;;;13.60;57.94;100423.81;4902679;28;20138;-86
2023/05/04 07:20:27;;;;;;;14.52;8.73;;;;;;;13.66;57.84;100415.22;4920660;28;20043;-86
2023/05/04 07:22:55;;;;;;;13.48;7.72;;;;;;;13.71;57.35;100412.97;4923819;28;20040;-86
2023/05/04 07:25:25;;;;;;;13.82;8.82;;;;;;;13.75;58.12;100421.56;4906736;28;20051;-87
2023/05/04 07:27:52;;;;;;;14.00;7.97;;;;;;;13.77;57.52;100420.44;4935937;28;20036;-88
2023/05/04 07:30:20;;;;;;;12.63;8.32;;;;;;;13.79;57.64;100406.91;4934941;28;20044;-86
2023/05/04 07:32:47;;;;;;;21.27;8.32;;;;;;;13.85;57.51;100409.88;4919987;28;20052;-86
2023/05/04 07:35:14;;;;;;;14.75;9.10;;;;;;;13.87;57.96;100413.25;4918929;28;20056;-86
2023/05/04 07:37:41;;;;;;;13.32;8.50;;;;;;;13.92;57.73;100411.97;4918949;28;20509;-87
2023/05/04 07:40:08;;;;;;;13.82;8.20;;;;;;;13.97;57.62;100407.03;4918800;28;20054;-86
2023/05/04 07:42:35;;;;;;;14.85;8.15;;;;;;;14.02;58.33;100399.47;4910190;28;20151;-86
2023/05/04 07:45:02;;;;;;;14.00;7.85;;;;;;;14.03;58.84;100393.13;4920358;28;20052;-86
2023/05/04 07:47:29;;;;;;;15.77;8.82;;;;;;;14.11;59.00;100395.91;4935829;28;20115;-86
2023/05/04 07:49:56;;;;;;;13.48;9.15;;;;;;;14.14;58.88;100390.28;4919876;28;20087;-87
2023/05/04 07:52:22;;;;;;;14.13;8.57;;;;;;;14.20;58.66;100388.88;4935111;28;20416;-88
2023/05/04 07:54:53;;;;;;;12.55;8.07;;;;;;;14.27;59.58;100380.13;4897571;28;20080;-88
2023/05/04 07:57:20;;;;;;;12.32;8.18;;;;;;;14.30;58.97;100385.16;4918223;28;20055;-87
2023/05/04 07:59:47;;;;;;;11.85;7.18;;;;;;;14.34;58.61;100383.03;4935795;28;20547;-86
2023/05/04 08:02:14;;;;;;;13.05;8.05;;;;;;;14.35;58.52;100376.72;4922896;28;20051;-87
2023/05/04 08:04:41;;;;;;;11.65;7.45;;;;;;;14.38;58.50;100384.44;4938478;28;20060;-86
2023/05/04 08:07:08;;;;;;;12.25;7.38;;;;;;;14.43;58.61;100376.00;4939876;28;20404;-87
2023/05/04 08:09:34;;;;;;;11.88;7.90;;;;;;;14.49;58.73;100376.22;4923331;28;20512;-87
2023/05/04 08:12:03;;;;;;;14.32;8.57;;;;;;;14.54;58.21;100382.00;4924362;28;20508;-86
2023/05/04 08:14:30;;;;;;;11.13;7.75;;;;;;;14.60;58.43;100379.72;4922493;28;20432;-87
2023/05/04 08:16:56;;;;;;;12.13;7.45;;;;;;;14.60;58.27;100374.38;4926140;28;20111;-86
2023/05/04 08:19:23;;;;;;;12.18;8.02;;;;;;;14.65;59.09;100372.94;4921924;28;20063;-86
2023/05/04 08:21:50;;;;;;;8.63;6.65;;;;;;;14.71;58.80;100368.84;4925049;28;20479;-87
2023/05/04 08:24:17;;;;;;;8.63;7.03;;;;;;;14.74;58.63;100360.53;4940716;28;20200;-87
2023/05/04 08:26:43;;;;;;;17.73;8.30;;;;;;;14.80;59.06;100356.41;4936928;28;20043;-86
2023/05/04 08:29:21;;;;;;;11.27;8.40;;;;;;;14.81;58.25;100355.41;4926266;28;20048;-86
2023/05/04 08:31:48;;;;;;;13.02;9.05;;;;;;;14.83;59.07;100354.25;4901437;28;20135;-87
2023/05/04 08:34:15;;;;;;;12.68;7.95;;;;;;;14.82;59.11;100349.06;4923920;28;20699;-87
2023/05/04 08:36:42;;;;;;;10.35;7.55;;;;;;;14.88;58.88;100349.31;4926362;28;20095;-86
2023/05/04 08:39:10;;;;;;;11.32;7.55;;;;;;;14.92;58.79;100350.69;4937245;28;20043;-87
2023/05/04 08:41:40;;;;;;;13.45;7.50;;;;;;;14.96;58.56;100343.22;4938722;28;20081;-87
2023/05/04 08:44:09;;;;;;;9.05;6.75;;;;;;;15.01;58.58;100334.72;4939265;28;20051;-86
2023/05/04 08:46:36;;;;;;;10.93;5.78;;;;;;;15.08;58.25;100338.47;4921525;28;20066;-87
2023/05/04 08:49:03;;;;;;;11.88;5.78;;;;;;;15.13;58.11;100338.84;4892029;28;20058;-86
2023/05/04 08:51:34;;;;;;;10.02;5.68;;;;;;;15.18;57.74;100341.91;4912126;28;20059;-87
2023/05/04 08:54:06;;;;;;;7.93;5.03;;;;;;;15.21;57.85;100330.91;4909540;28;20146;-86
2023/05/04 08:56:37;;;;;;;14.73;6.55;;;;;;;15.26;57.47;100333.94;4880643;28;20047;-87
2023/05/04 08:59:23;;;;;;;9.73;5.90;;;;;;;15.23;57.74;100318.22;4897928;28;20293;-86
2023/05/04 09:01:56;;;;;;;8.82;6.53;;;;;;;15.32;57.60;100325.31;4889984;28;20047;-86
2023/05/04 09:04:31;;;;;;;10.88;6.63;;;;;;;15.39;58.31;100326.41;4910790;28;20142;-86
2023/05/04 09:07:03;;;;;;;10.10;6.22;;;;;;;15.43;57.79;100318.88;4936153;28;20062;-86
2023/05/04 09:09:30;;;;;;;15.30;5.95;;;;;;;15.51;57.65;100321.63;4894344;29;20505;-87
2023/05/04 09:11:57;;;;;;;9.02;6.22;;;;;;;15.53;57.56;100316.13;4893689;29;20146;-86
2023/05/04 09:14:31;;;;;;;11.93;6.95;;;;;;;15.54;56.96;100320.47;4931384;28;20070;-86
2023/05/04 09:17:03;;;;;;;10.93;6.30;;;;;;;15.57;57.08;100315.66;4904165;28;20059;-86
2023/05/04 09:19:42;;;;;;;12.27;6.10;;;;;;;15.62;57.27;100315.16;4905230;28;20544;-86
2023/05/04 09:22:16;;;;;;;11.90;6.65;;;;;;;15.60;57.29;100307.31;4906409;28;20130;-87
2023/05/04 09:24:44;;;;;;;9.85;5.85;;;;;;;15.70;57.23;100309.91;4916349;28;20262;-87
2023/05/04 09:27:12;;;;;;;12.90;6.53;;;;;;;15.74;57.09;100310.44;4921591;28;20044;-87
2023/05/04 09:29:43;;;;;;;9.18;6.15;;;;;;;15.74;56.97;100297.88;4906723;28;20051;-87
2023/05/04 09:32:12;;;;;;;10.40;5.57;;;;;;;15.76;57.11;100301.25;4920107;28;20039;-87
2023/05/04 09:34:51;;;;;;;9.15;5.93;;;;;;;15.81;57.26;100306.97;4919461;28;20056;-86
2023/05/04 09:37:19;;;;;;;7.93;5.82;;;;;;;15.88;57.13;100301.00;4919351;28;20140;-86
2023/05/04 09:39:54;;;;;;;8.50;6.03;;;;;;;15.88;56.77;100299.16;4921165;28;20039;-86
2023/05/04 09:42:22;;;;;;;8.95;6.20;;;;;;;15.95;56.91;100291.31;4912256;28;20043;-86
2023/05/04 09:45:00;;;;;;;10.48;6.93;;;;;;;15.94;56.23;100292.31;4919482;28;20070;-86
2023/05/04 09:47:40;;;;;;;7.65;5.90;;;;;;;15.96;56.24;100291.16;4911361;28;20055;-86
2023/05/04 09:50:15;;;;;;;8.63;6.07;;;;;;;15.99;56.37;100285.47;4903017;28;20055;-87
2023/05/04 09:52:46;;;;;;;7.40;6.03;;;;;;;16.08;55.93;100289.03;4922151;28;20131;-87
2023/05/04 09:55:15;;;;;;;11.18;5.40;;;;;;;16.10;56.03;100272.78;4919271;28;20295;-86
2023/05/04 09:57:43;;;;;;;7.70;5.60;;;;;;;16.14;56.01;100279.53;4910083;28;20044;-87
2023/05/04 10:00:16;;;;;;;9.00;6.40;;;;;;;16.17;55.58;100266.63;4920533;28;20491;-86
2023/05/04 10:02:46;;;;;;;11.38;6.28;;;;;;;16.19;55.78;100270.00;4910808;28;20116;-86
2023/05/04 10:05:15;;;;;;;10.45;6.50;;;;;;;16.25;55.60;100271.19;4920451;28;20063;-85
2023/05/04 10:07:43;;;;;;;10.80;5.75;;;;;;;16.28;55.61;100266.34;4919273;28;20114;-86
2023/05/04 10:10:14;;;;;;;8.48;5.88;;;;;;;16.31;55.14;100254.47;4905615;28;20091;-86
2023/05/04 10:12:43;;;;;;;6.78;5.18;;;;;;;16.34;55.23;100254.13;4919813;28;20052;-87
2023/05/04 10:15:10;;;;;;;9.43;5.70;;;;;;;16.37;55.25;100255.66;4904633;28;20584;-86
2023/05/04 10:17:46;;;;;;;13.57;7.18;;;;;;;16.36;54.39;100246.78;4935611;28;20072;-86
2023/05/04 10:20:29;;;;;;;9.73;6.18;;;;;;;16.34;55.08;100247.94;4919032;28;20051;-86
2023/05/04 10:22:56;;;;;;;;;;;;;;;16.28;54.60;100252.09;4938518;28;20051;-86
2023/05/04 10:25:33;;;;;;;11.77;6.57;;;;;;;16.43;54.82;100238.91;4934809;28;19927;-87
2023/05/04 10:28:11;;;;;;;9.48;6.10;;;;;;;16.41;54.85;100233.72;4901684;28;20135;-86
2023/05/04 10:30:39;;;;;;;9.57;6.43;;;;;;;16.47;54.56;100238.41;4916577;28;20341;-87
2023/05/04 10:33:06;;;;;;;10.82;6.15;;;;;;;16.52;54.66;100237.09;4906552;28;20584;-87
2023/05/04 10:35:44;;;;;;;10.30;6.20;;;;;;;16.52;54.62;100232.56;4909482;28;21969;-87
2023/05/04 10:38:13;;;;;;;9.23;6.35;;;;;;;16.53;54.73;100225.38;4894911;28;20044;-86
2023/05/04 10:40:42;;;;;;;13.77;6.68;;;;;;;16.57;54.72;100227.56;4906930;28;20112;-86
2023/05/04 10:43:12;;;;;;;8.52;5.53;;;;;;;16.59;54.73;100227.38;4885118;28;20474;-87
2023/05/04 10:45:40;;;;;;;9.48;5.53;;;;;;;16.65;54.22;100227.56;4891241;29;20517;-86
2023/05/04 10:48:08;;;;;;;9.65;5.60;;;;;;;16.66;54.73;100221.22;4903059;28;20043;-86
2023/05/04 10:50:45;;;;;;;10.45;5.88;;;;;;;16.66;54.30;100223.91;4938341;28;20059;-87
2023/05/04 10:53:16;;;;;;;7.90;5.53;;;;;;;16.73;54.23;100215.19;4923350;28;20058;-86
2023/05/04 10:55:47;;;;;;;12.00;6.40;;;;;;;16.76;54.07;100207.63;4894572;28;20142;-86
2023/05/04 10:58:20;;;;;;;9.13;5.65;;;;;;;16.74;53.77;100206.97;4874467;29;20413;-87
2023/05/04 11:00:51;;;;;;;10.30;6.50;;;;;;;16.76;53.80;100196.06;4908484;28;20048;-87
2023/05/04 11:03:23;;;;;;;13.90;5.88;;;;;;;16.82;53.91;100196.28;4923674;28;20066;-86
2023/05/04 11:05:54;;;;;;;9.60;5.55;;;;;;;16.83;53.89;100197.94;4879613;28;20060;-87
2023/05/04 11:08:25;;;;;;;9.25;5.60;;;;;;;16.86;53.70;100199.44;4905178;28;20054;-86
2023/05/04 11:11:03;;;;;;;8.10;5.55;;;;;;;16.83;53.79;100189.91;4897162;28;20043;-86
2023/05/04 11:13:45;;;;;;;6.78;4.90;;;;;;;16.85;53.40;100181.69;4864749;28;20058;-86
2023/05/04 11:16:13;;;;;;;10.65;5.82;;;;;;;16.93;53.99;100187.88;4889340;28;20059;-86
2023/05/04 11:18:46;;;;;;;9.48;5.95;;;;;;;16.93;53.23;100190.56;4908665;28;20059;-86
2023/05/04 11:21:22;;;;;;;12.52;7.10;;;;;;;16.95;52.73;100181.53;4903027;28;20154;-87
2023/05/04 11:23:57;;;;;;;8.70;5.50;;;;;;;16.99;53.26;100183.69;4925678;28;20155;-87
2023/05/04 11:26:27;;;;;;;10.18;6.00;;;;;;;17.07;53.51;100174.78;4898263;28;20059;-87
2023/05/04 11:28:54;;;;;;;7.40;4.90;;;;;;;17.08;53.50;100180.00;4932342;28;20048;-87